Time;durP1;ratioP1;P1;durP2;ratioP2;P2;SDS_P1;SDS_P2;PMS_P1;PMS_P2;Temp;Humidity;BMP_temperature;BMP_pressure;BME280_temperature;BME280_humidity;BME280_pressure;Samples;Min_cycle;Max_cycle;Signal;HPM_P1;HPM_P2
2021/01/07 00:01:10;;;;;;;103.32;52.75;;;;;;;2.26;90.29;100751.64;1760744;81;21153;-83
2021/01/07 00:03:40;;;;;;;102.32;48.98;;;;;;;2.25;90.16;100756.36;1741239;82;21184;-82
2021/01/07 00:06:12;;;;;;;100.50;49.95;;;;;;;2.19;89.96;100748.19;1760095;81;21163;-82
2021/01/07 00:08:39;;;;;;;97.60;47.33;;;;;;;2.13;89.82;100746.13;1760162;81;21897;-82
2021/01/07 00:11:07;;;;;;;94.22;47.50;;;;;;;2.02;89.66;100744.61;1760620;80;21144;-83
2021/01/07 00:13:35;;;;;;;100.42;48.90;;;;;;;1.97;89.80;100748.66;1760764;81;21140;-83
2021/01/07 00:16:02;;;;;;;92.30;46.80;;;;;;;1.99;90.06;100741.85;1760674;81;21176;-84
2021/01/07 00:18:29;;;;;;;89.35;47.03;;;;;;;2.05;90.16;100743.91;1760747;81;21587;-83
2021/01/07 00:20:56;;;;;;;90.55;46.08;;;;;;;2.06;90.17;100740.49;1760806;80;21901;-82
2021/01/07 00:23:23;;;;;;;90.67;45.85;;;;;;;2.05;90.14;100731.81;1760547;80;21133;-83
2021/01/07 00:25:52;;;;;;;89.03;45.65;;;;;;;2.06;90.13;100733.59;1760896;81;21447;-83
2021/01/07 00:28:20;;;;;;;90.10;44.15;;;;;;;2.06;90.11;100730.99;1761027;81;21208;-83
2021/01/07 00:30:47;;;;;;;84.05;43.10;;;;;;;2.00;89.86;100730.64;1760876;81;21128;-83
2021/01/07 00:33:16;;;;;;;87.08;45.17;;;;;;;2.00;90.07;100729.34;1760912;80;21892;-83
2021/01/07 00:35:43;;;;;;;83.90;43.33;;;;;;;2.04;90.25;100728.71;1760947;80;21172;-83
2021/01/07 00:38:10;;;;;;;86.45;44.25;;;;;;;2.08;90.25;100734.98;1760929;80;21209;-82
2021/01/07 00:40:37;;;;;;;81.20;42.93;;;;;;;2.09;90.21;100732.90;1761039;81;21109;-82
2021/01/07 00:43:04;;;;;;;82.05;42.93;;;;;;;2.10;90.31;100735.59;1760864;81;21210;-83
2021/01/07 00:45:31;;;;;;;86.25;44.45;;;;;;;2.12;90.24;100733.97;1760874;81;21932;-82
2021/01/07 00:47:59;;;;;;;87.57;42.50;;;;;;;2.12;90.21;100728.78;1760853;80;21128;-82
2021/01/07 00:50:26;;;;;;;83.40;42.30;;;;;;;2.12;90.09;100729.16;1760875;81;21053;-82
2021/01/07 00:52:53;;;;;;;81.30;43.95;;;;;;;2.12;90.18;100727.48;1760834;81;21594;-83
2021/01/07 00:55:20;;;;;;;86.32;43.87;;;;;;;2.15;90.20;100725.45;1761056;81;21264;-83
2021/01/07 00:57:47;;;;;;;82.55;42.00;;;;;;;2.18;90.21;100720.83;1760842;81;21871;-82
2021/01/07 01:00:17;;;;;;;82.30;42.20;;;;;;;2.16;90.08;100723.37;1760839;81;21152;-83
2021/01/07 01:02:45;;;;;;;76.15;41.37;;;;;;;2.11;89.89;100721.78;1760876;80;21113;-83
2021/01/07 01:05:12;;;;;;;81.10;42.58;;;;;;;2.12;90.06;100720.07;1760868;81;21136;-82
2021/01/07 01:07:39;;;;;;;83.60;44.03;;;;;;;2.16;90.14;100719.84;1760822;81;21117;-81
2021/01/07 01:10:11;;;;;;;85.92;44.42;;;;;;;2.12;89.91;100710.60;1760719;80;22099;-81
2021/01/07 01:12:38;;;;;;;86.30;42.55;;;;;;;2.09;89.88;100712.13;1760767;80;21168;-81
2021/01/07 01:15:09;;;;;;;82.57;41.98;;;;;;;2.08;89.93;100708.64;1760769;81;21144;-82
2021/01/07 01:17:40;;;;;;;86.20;42.25;;;;;;;2.10;89.93;100707.41;1760831;81;21125;-83
2021/01/07 01:20:11;;;;;;;81.53;39.88;;;;;;;2.09;89.88;100706.52;1770821;80;21168;-83
2021/01/07 01:22:38;;;;;;;81.80;42.75;;;;;;;2.08;89.84;100707.72;1760634;80;21962;-83
2021/01/07 01:25:08;;;;;;;77.27;42.35;;;;;;;2.08;89.93;100700.85;1722743;83;21229;-83
2021/01/07 01:27:36;;;;;;;85.87;44.83;;;;;;;2.12;90.01;100705.79;1722892;83;21140;-82
2021/01/07 01:30:05;;;;;;;77.12;40.45;;;;;;;2.09;89.80;100705.22;1722769;83;21564;-82
2021/01/07 01:32:35;;;;;;;87.30;42.05;;;;;;;2.05;89.67;100699.77;1722877;83;21145;-81
2021/01/07 01:35:02;;;;;;;83.22;42.95;;;;;;;2.04;89.77;100704.05;1722680;83;21905;-82
2021/01/07 01:37:30;;;;;;;80.32;40.60;;;;;;;2.03;89.81;100701.39;1722714;83;21069;-82
2021/01/07 01:39:58;;;;;;;73.55;39.80;;;;;;;2.07;89.89;100702.94;1722747;83;21165;-82
2021/01/07 01:42:25;;;;;;;73.02;39.90;;;;;;;2.08;89.93;100703.45;1722759;83;21266;-82
2021/01/07 01:44:53;;;;;;;80.67;43.45;;;;;;;2.11;89.96;100707.50;1722846;83;21180;-82
2021/01/07 01:47:21;;;;;;;83.10;42.60;;;;;;;2.07;89.72;100709.84;1722758;83;21902;-81
2021/01/07 01:49:50;;;;;;;77.75;41.25;;;;;;;2.07;89.87;100704.24;1717836;83;21264;-82
2021/01/07 01:52:18;;;;;;;77.08;40.17;;;;;;;2.10;89.89;100709.62;1722863;83;21149;-82
2021/01/07 01:54:45;;;;;;;80.42;39.58;;;;;;;2.10;89.84;100700.91;1722870;83;21259;-82
2021/01/07 01:57:13;;;;;;;76.50;40.28;;;;;;;2.09;89.80;100696.13;1722870;83;21662;-82
2021/01/07 01:59:40;;;;;;;82.35;40.78;;;;;;;2.10;89.81;100694.42;1722819;83;22892;-82
2021/01/07 02:02:15;;;;;;;73.70;40.70;;;;;;;2.11;89.87;100694.93;1722669;83;21129;-82
2021/01/07 02:04:42;;;;;;;74.22;40.28;;;;;;;2.10;89.81;100688.85;1722719;83;21122;-82
2021/01/07 02:07:21;;;;;;;81.95;41.42;;;;;;;2.07;89.64;100687.36;1722781;83;21197;-82
2021/01/07 02:09:49;;;;;;;81.92;42.15;;;;;;;2.05;89.69;100684.20;1722912;83;21192;-82
2021/01/07 02:12:16;;;;;;;88.90;43.35;;;;;;;2.02;89.71;100681.00;1723118;83;21913;-83
2021/01/07 02:14:44;;;;;;;84.92;43.65;;;;;;;2.02;89.72;100678.81;1722806;83;21536;-82
2021/01/07 02:17:12;;;;;;;81.87;41.77;;;;;;;1.99;89.72;100668.24;1722889;83;21189;-81
2021/01/07 02:19:39;;;;;;;82.17;42.65;;;;;;;2.00;89.91;100669.63;1722913;83;21167;-82
2021/01/07 02:22:06;;;;;;;84.95;40.88;;;;;;;2.02;89.91;100668.02;1722998;83;21148;-82
2021/01/07 02:24:33;;;;;;;81.20;42.23;;;;;;;2.01;89.82;100665.33;1711706;82;21983;-81
2021/01/07 02:27:06;;;;;;;85.47;42.40;;;;;;;1.98;89.67;100662.58;1781064;80;21148;-84
2021/01/07 02:29:35;;;;;;;85.00;45.23;;;;;;;1.92;89.45;100661.81;1748992;81;21595;-82
2021/01/07 02:32:02;;;;;;;92.02;45.05;;;;;;;1.85;89.36;100663.56;1748796;81;21149;-81
2021/01/07 02:34:29;;;;;;;86.65;44.05;;;;;;;1.88;89.78;100665.05;1748999;81;21480;-81
2021/01/07 02:36:56;;;;;;;87.25;43.08;;;;;;;1.91;89.84;100661.31;1781231;80;21896;-81
2021/01/07 02:39:23;;;;;;;83.92;42.00;;;;;;;1.94;89.96;100655.89;1748887;81;21196;-81
2021/01/07 02:41:54;;;;;;;80.60;42.10;;;;;;;1.94;89.85;100656.31;1781157;80;21112;-81
2021/01/07 02:44:22;;;;;;;83.60;42.75;;;;;;;1.92;89.81;100651.44;1781185;80;21208;-82
2021/01/07 02:46:53;;;;;;;83.85;43.08;;;;;;;1.93;89.84;100657.10;1748961;81;21176;-81
2021/01/07 02:49:21;;;;;;;80.07;40.75;;;;;;;1.99;90.03;100660.08;1748854;81;21970;-81
2021/01/07 02:51:49;;;;;;;79.12;41.55;;;;;;;2.01;90.01;100658.45;1748892;81;21654;-83
2021/01/07 02:54:16;;;;;;;73.25;39.95;;;;;;;2.02;89.94;100658.93;1746546;82;21148;-81
2021/01/07 02:56:43;;;;;;;80.90;41.30;;;;;;;2.02;89.92;100656.34;1781089;80;21129;-81
2021/01/07 02:59:10;;;;;;;78.85;42.20;;;;;;;2.01;89.91;100653.27;1749042;81;21663;-81
2021/01/07 03:01:38;;;;;;;83.55;42.08;;;;;;;2.03;90.00;100658.14;1781197;80;21898;-82
2021/01/07 03:04:05;;;;;;;82.78;42.45;;;;;;;2.03;89.92;100653.36;1780986;80;21121;-81
2021/01/07 03:06:32;;;;;;;89.07;44.98;;;;;;;1.99;89.74;100656.18;1748974;82;21122;-81
2021/01/07 03:08:59;;;;;;;83.47;43.58;;;;;;;1.96;89.74;100652.51;1746389;82;21144;-81
2021/01/07 03:11:26;;;;;;;85.75;42.98;;;;;;;1.93;89.75;100651.91;1781130;80;21149;-81
2021/01/07 03:13:53;;;;;;;80.87;43.35;;;;;;;1.98;89.97;100654.79;1746514;82;21899;-81
2021/01/07 03:16:20;;;;;;;86.87;42.70;;;;;;;1.97;89.83;100647.41;1781064;80;21188;-81
2021/01/07 03:18:48;;;;;;;85.65;43.28;;;;;;;1.97;89.76;100647.80;1781083;80;21125;-81
2021/01/07 03:21:15;;;;;;;85.57;43.52;;;;;;;1.98;89.81;100649.59;1748870;82;21153;-82
2021/01/07 03:23:42;;;;;;;84.10;42.03;;;;;;;1.93;89.65;100647.64;1776987;80;21220;-81
2021/01/07 03:26:09;;;;;;;81.97;42.38;;;;;;;1.93;89.63;100644.13;1757274;81;21902;-82
2021/01/07 03:28:36;;;;;;;81.82;41.30;;;;;;;1.94;89.71;100643.33;1757090;81;21184;-81
2021/01/07 03:31:03;;;;;;;75.03;40.40;;;;;;;1.97;89.77;100645.20;1757215;81;21600;-82
2021/01/07 03:33:30;;;;;;;77.92;41.10;;;;;;;2.01;89.82;100644.56;1757287;81;21611;-82
2021/01/07 03:35:58;;;;;;;83.47;41.28;;;;;;;2.05;89.89;100643.95;1757290;81;21130;-82
2021/01/07 03:38:27;;;;;;;87.17;43.10;;;;;;;2.07;89.81;100644.52;1757388;81;21900;-82
2021/01/07 03:40:54;;;;;;;89.40;44.08;;;;;;;2.08;89.68;100641.52;1757116;81;21160;-83
2021/01/07 03:43:21;;;;;;;78.12;41.80;;;;;;;2.08;89.67;100637.63;1757266;81;21164;-82
2021/01/07 03:45:50;;;;;;;82.53;42.90;;;;;;;2.07;89.60;100647.12;1757178;81;21535;-82
2021/01/07 03:48:17;;;;;;;80.10;42.08;;;;;;;2.11;89.74;100637.80;1757271;81;21602;-82
2021/01/07 03:50:44;;;;;;;78.12;41.88;;;;;;;2.10;89.68;100635.62;1757162;81;21888;-83
2021/01/07 03:53:11;;;;;;;84.75;43.65;;;;;;;2.07;89.45;100639.33;1757020;81;21237;-81
2021/01/07 03:55:38;;;;;;;84.30;42.78;;;;;;;2.07;89.60;100635.85;1757215;81;21124;-83
2021/01/07 03:58:05;;;;;;;80.30;41.18;;;;;;;2.11;89.77;100630.91;1757124;81;21630;-82
2021/01/07 04:00:32;;;;;;;81.85;41.53;;;;;;;2.17;89.75;100629.47;1757179;81;21573;-81
2021/01/07 04:02:59;;;;;;;74.70;40.73;;;;;;;2.19;89.77;100633.93;1757088;81;22093;-81
2021/01/07 04:05:27;;;;;;;74.62;40.70;;;;;;;2.21;89.66;100626.23;1757114;81;21201;-81
2021/01/07 04:07:54;;;;;;;82.55;41.20;;;;;;;2.19;89.46;100618.77;1757098;81;21160;-81
2021/01/07 04:10:21;;;;;;;81.53;40.35;;;;;;;2.13;89.36;100622.80;1757058;81;21208;-81
2021/01/07 04:12:48;;;;;;;82.55;41.80;;;;;;;2.12;89.37;100630.48;1757200;81;21205;-82
2021/01/07 04:15:15;;;;;;;78.57;41.13;;;;;;;2.16;89.58;100625.07;1757160;81;21902;-81
2021/01/07 04:17:42;;;;;;;75.28;41.18;;;;;;;2.16;89.51;100624.69;1756987;81;21325;-81
2021/01/07 04:20:09;;;;;;;77.20;39.33;;;;;;;2.17;89.47;100625.16;1757097;81;21112;-81
2021/01/07 04:22:43;;;;;;;86.82;43.75;;;;;;;2.17;89.43;100618.67;1757031;81;21540;-82
2021/01/07 04:25:11;;;;;;;73.97;39.27;;;;;;;2.16;89.36;100619.87;1772960;80;21116;-83
2021/01/07 04:27:38;;;;;;;71.62;38.70;;;;;;;2.16;89.38;100615.98;1748775;82;21916;-82
2021/01/07 04:30:06;;;;;;;78.70;39.38;;;;;;;2.17;89.37;100617.78;1746389;82;21555;-82
2021/01/07 04:32:33;;;;;;;71.07;38.28;;;;;;;2.14;89.29;100607.72;1781092;80;21116;-82
2021/01/07 04:35:00;;;;;;;69.15;38.13;;;;;;;2.13;89.35;100608.52;1748857;81;21472;-82
2021/01/07 04:37:27;;;;;;;66.37;37.35;;;;;;;2.11;89.21;100605.35;1748779;82;21239;-82
2021/01/07 04:39:55;;;;;;;71.12;38.25;;;;;;;2.08;89.25;100603.48;1781012;80;21947;-82
2021/01/07 04:42:22;;;;;;;71.50;38.13;;;;;;;2.10;89.39;100604.47;1748959;81;21137;-82
2021/01/07 04:44:49;;;;;;;75.10;40.43;;;;;;;2.09;89.21;100606.56;1781127;80;21116;-82
2021/01/07 04:47:16;;;;;;;72.78;40.52;;;;;;;2.02;89.00;100605.71;1780988;80;21206;-82
2021/01/07 04:49:44;;;;;;;70.92;38.83;;;;;;;1.99;89.00;100605.56;1780973;80;21132;-82
2021/01/07 04:52:11;;;;;;;69.72;37.58;;;;;;;1.96;88.99;100607.97;1748734;81;21792;-83
2021/01/07 04:54:38;;;;;;;70.57;38.23;;;;;;;1.94;89.09;100605.69;1748845;81;21069;-84
2021/01/07 04:57:05;;;;;;;66.22;35.40;;;;;;;1.99;89.29;100597.77;1746419;82;21148;-83
2021/01/07 04:59:32;;;;;;;68.40;37.25;;;;;;;2.02;89.33;100595.74;1780987;80;21152;-83
2021/01/07 05:01:59;;;;;;;62.23;35.20;;;;;;;2.07;89.43;100596.48;1746426;82;21153;-83
2021/01/07 05:04:26;;;;;;;67.35;35.52;;;;;;;2.10;89.38;100594.08;1780927;80;21946;-83
2021/01/07 05:06:53;;;;;;;67.35;35.17;;;;;;;2.16;89.46;100600.41;1748717;81;21129;-82
2021/01/07 05:09:21;;;;;;;60.25;34.45;;;;;;;2.17;89.26;100599.61;1748823;81;21165;-82
2021/01/07 05:11:49;;;;;;;49.08;29.00;;;;;;;2.13;89.19;100594.23;1748709;82;21141;-82
2021/01/07 05:14:16;;;;;;;52.43;30.97;;;;;;;2.11;88.94;100599.74;1780949;80;21563;-81
2021/01/07 05:16:43;;;;;;;59.77;33.38;;;;;;;2.08;88.99;100598.30;1748730;81;22663;-81
2021/01/07 05:19:10;;;;;;;64.12;34.35;;;;;;;2.10;89.19;100594.45;1780971;80;21144;-81
2021/01/07 05:21:38;;;;;;;64.40;34.18;;;;;;;2.09;89.02;100595.28;1748962;81;21130;-83
2021/01/07 05:24:07;;;;;;;51.50;30.08;;;;;;;2.05;88.91;100599.82;1717188;81;21160;-82
2021/01/07 05:26:34;;;;;;;51.55;28.70;;;;;;;2.02;88.95;100597.04;1781013;80;21153;-80
2021/01/07 05:29:02;;;;;;;51.20;30.23;;;;;;;1.99;88.87;100595.55;1748714;81;22885;-81
2021/01/07 05:31:29;;;;;;;52.27;29.20;;;;;;;1.94;88.82;100588.41;1748695;82;21124;-81
2021/01/07 05:33:56;;;;;;;54.18;29.85;;;;;;;1.93;88.89;100599.61;1746350;82;21591;-82
2021/01/07 05:36:27;;;;;;;56.88;31.35;;;;;;;1.93;88.94;100593.13;1780980;80;21155;-82
2021/01/07 05:38:58;;;;;;;58.10;30.57;;;;;;;1.90;88.85;100592.05;1781133;80;21148;-82
2021/01/07 05:41:25;;;;;;;55.65;29.23;;;;;;;1.84;88.83;100591.67;1778169;80;21913;-82
2021/01/07 05:44:02;;;;;;;60.50;32.58;;;;;;;1.85;89.01;100590.89;1748764;82;21882;-82
2021/01/07 05:46:33;;;;;;;48.75;25.45;;;;;;;1.82;88.90;100594.59;1747455;81;21203;-82
2021/01/07 05:49:00;;;;;;;54.65;29.25;;;;;;;1.80;88.96;100598.39;1749145;81;21598;-82
2021/01/07 05:51:29;;;;;;;44.27;24.95;;;;;;;1.79;88.98;100597.03;1781481;80;21152;-83
2021/01/07 05:53:59;;;;;;;50.58;27.90;;;;;;;1.77;88.98;100593.05;1781235;80;21889;-83
2021/01/07 05:56:26;;;;;;;43.28;26.07;;;;;;;1.72;88.92;100595.36;1781221;80;21158;-85
2021/01/07 05:58:54;;;;;;;43.95;23.38;;;;;;;1.67;88.79;100593.30;1748983;82;21152;-83
2021/01/07 06:01:23;;;;;;;39.42;23.65;;;;;;;1.64;88.95;100590.55;1748577;82;21243;-82
2021/01/07 06:03:52;;;;;;;42.62;23.05;;;;;;;1.60;88.92;100588.17;1748870;81;21347;-82
2021/01/07 06:06:21;;;;;;;42.55;23.62;;;;;;;1.59;89.09;100591.98;1781028;80;21899;-83
2021/01/07 06:08:51;;;;;;;45.95;25.65;;;;;;;1.61;89.23;100583.46;1748825;82;21646;-82
2021/01/07 06:11:23;;;;;;;45.25;24.95;;;;;;;1.61;89.06;100586.47;1748910;81;21148;-81
2021/01/07 06:13:54;;;;;;;43.80;25.57;;;;;;;1.59;89.18;100589.37;1748923;82;21082;-82
2021/01/07 06:16:24;;;;;;;46.60;25.80;;;;;;;1.64;89.36;100582.77;1749014;81;21161;-84
2021/01/07 06:18:53;;;;;;;50.25;26.77;;;;;;;1.67;89.34;100581.25;1781314;80;21140;-84
2021/01/07 06:21:24;;;;;;;51.15;27.60;;;;;;;1.67;89.30;100577.36;1781125;80;21128;-82
2021/01/07 06:23:51;;;;;;;50.30;27.20;;;;;;;1.72;89.43;100577.19;1749435;80;21140;-86
2021/01/07 06:26:26;;;;;;;52.58;27.85;;;;;;;1.73;89.32;100576.41;1703549;82;21344;-85
2021/01/07 06:28:59;;;;;;;53.10;28.10;;;;;;;1.74;89.32;100585.95;1781144;80;21144;-85
2021/01/07 06:31:33;;;;;;;;;;;;;;;1.72;89.12;100584.09;1755006;81;21998;-85
2021/01/07 06:34:01;;;;;;;55.25;28.92;;;;;;;1.70;89.17;100584.00;1748902;82;20418;-86
2021/01/07 06:36:41;;;;;;;49.08;26.97;;;;;;;1.72;89.19;100586.69;1746648;82;21146;-85
2021/01/07 06:39:08;;;;;;;46.80;26.73;;;;;;;1.70;89.19;100582.70;1781240;80;21160;-83
2021/01/07 06:41:36;;;;;;;50.15;26.65;;;;;;;1.72;89.30;100583.68;1748862;82;21563;-83
2021/01/07 06:44:05;;;;;;;49.98;26.97;;;;;;;1.74;89.31;100582.06;1746395;82;21899;-84
2021/01/07 06:46:41;;;;;;;45.12;24.37;;;;;;;1.77;89.31;100581.37;1781108;80;21145;-83
2021/01/07 06:49:24;;;;;;;48.75;25.27;;;;;;;1.74;89.21;100586.37;1748766;81;21603;-83
2021/01/07 06:51:56;;;;;;;44.73;24.32;;;;;;;1.76;89.22;100586.05;1780707;80;21412;-83
2021/01/07 06:54:32;;;;;;;42.45;23.95;;;;;;;1.73;89.15;100582.89;1780915;80;21246;-83
2021/01/07 06:57:03;;;;;;;44.25;24.47;;;;;;;1.73;89.09;100584.19;1746139;82;21838;-84
2021/01/07 06:59:30;;;;;;;39.33;23.27;;;;;;;1.75;89.25;100589.06;1747547;81;21205;-78
2021/01/07 07:01:58;;;;;;;40.63;23.38;;;;;;;1.80;89.29;100587.13;1780707;80;21176;-81
2021/01/07 07:04:30;;;;;;;41.45;22.75;;;;;;;1.80;89.24;100581.52;1780523;80;21653;-80
2021/01/07 07:07:10;;;;;;;39.83;23.45;;;;;;;1.85;89.33;100583.10;1780661;80;21180;-80
2021/01/07 07:09:40;;;;;;;44.40;23.65;;;;;;;1.87;89.22;100587.56;1778216;80;21888;-79
2021/01/07 07:12:08;;;;;;;39.55;22.48;;;;;;;1.90;89.27;100585.56;1748259;82;21595;-79
2021/01/07 07:14:35;;;;;;;41.48;23.75;;;;;;;1.89;89.15;100585.95;1748379;82;21145;-81
2021/01/07 07:17:07;;;;;;;40.00;22.27;;;;;;;1.92;89.15;100585.25;1780499;80;21200;-80
2021/01/07 07:19:37;;;;;;;37.33;22.48;;;;;;;1.94;89.23;100583.63;1748247;81;21164;-80
2021/01/07 07:22:04;;;;;;;34.83;20.45;;;;;;;1.98;89.24;100584.70;1780422;80;21955;-79
2021/01/07 07:24:37;;;;;;;41.45;21.80;;;;;;;2.02;89.18;100589.25;1772859;79;22323;-79
2021/01/07 07:27:10;;;;;;;36.60;20.52;;;;;;;2.01;89.03;100596.16;1746728;81;21224;-80
2021/01/07 07:29:39;;;;;;;38.53;21.57;;;;;;;1.99;89.05;100587.39;1779655;78;21195;-80
2021/01/07 07:32:22;;;;;;;37.75;21.68;;;;;;;2.03;88.92;100594.53;1787042;80;21638;-79
2021/01/07 07:35:00;;;;;;;52.57;20.83;;;;;;;2.11;88.99;100589.77;1888138;76;23976;-82
2021/01/07 07:37:28;;;;;;;37.60;19.98;;;;;;;2.12;89.10;100591.16;1859086;77;21119;-82
2021/01/07 07:40:02;;;;;;;39.15;20.48;;;;;;;2.17;89.06;100594.00;1859230;77;21874;-81
2021/01/07 07:42:30;;;;;;;37.55;21.17;;;;;;;2.23;89.03;100593.45;1858885;77;21186;-81
2021/01/07 07:44:57;;;;;;;39.75;22.48;;;;;;;2.29;89.02;100598.98;1859286;77;21175;-81
2021/01/07 07:47:24;;;;;;;41.20;22.73;;;;;;;2.32;88.88;100596.56;1859333;77;21170;-79
2021/01/07 07:49:56;;;;;;;40.17;23.60;;;;;;;2.34;88.77;100593.23;1859643;77;21110;-79
2021/01/07 07:52:26;;;;;;;41.90;25.02;;;;;;;2.36;88.70;100593.31;1859515;77;21931;-80
2021/01/07 07:55:03;;;;;;;43.30;24.75;;;;;;;2.43;88.82;100602.36;1859376;76;21135;-80
2021/01/07 07:57:32;;;;;;;43.20;26.12;;;;;;;2.45;88.73;100601.62;1859484;77;21157;-80
2021/01/07 08:00:15;;;;;;;42.53;24.10;;;;;;;2.51;88.70;100602.36;1859622;77;21186;-80
2021/01/07 08:02:43;;;;;;;44.90;24.40;;;;;;;2.54;88.57;100601.24;1859906;77;21119;-81
2021/01/07 08:05:15;;;;;;;44.70;24.45;;;;;;;2.56;88.53;100598.32;1859396;77;21857;-79
2021/01/07 08:07:51;;;;;;;45.78;23.85;;;;;;;2.58;88.45;100599.71;1852511;77;21396;-80
2021/01/07 08:10:18;;;;;;;40.52;23.77;;;;;;;2.61;88.46;100599.47;1859443;77;21597;-80
2021/01/07 08:12:45;;;;;;;40.83;23.73;;;;;;;2.69;88.52;100603.78;1859409;77;21556;-79
2021/01/07 08:15:29;;;;;;;39.92;23.18;;;;;;;2.70;88.20;100606.86;1859671;77;21565;-80
2021/01/07 08:17:56;;;;;;;43.13;25.40;;;;;;;2.72;88.31;100606.14;1859711;77;27356;-81
2021/01/07 08:20:25;;;;;;;42.10;24.95;;;;;;;2.80;88.28;100607.86;1859414;77;21600;-81
2021/01/07 08:22:55;;;;;;;44.33;25.35;;;;;;;2.83;88.06;100603.22;1859516;77;21565;-81
2021/01/07 08:25:25;;;;;;;42.30;23.57;;;;;;;2.87;88.18;100605.16;1859913;76;21122;-84
2021/01/07 08:27:56;;;;;;;39.00;23.15;;;;;;;2.94;88.16;100601.20;1859803;77;21393;-85
2021/01/07 08:30:24;;;;;;;44.20;23.75;;;;;;;2.96;87.97;100604.36;1857229;77;21886;-83
2021/01/07 08:32:51;;;;;;;42.27;25.12;;;;;;;2.99;87.92;100600.63;1859459;77;21142;-83
2021/01/07 08:35:18;;;;;;;47.62;27.13;;;;;;;3.01;87.78;100603.31;1854591;77;21110;-83
2021/01/07 08:37:45;;;;;;;48.35;27.37;;;;;;;2.99;87.62;100601.93;1797994;77;21136;-83
2021/01/07 08:40:13;;;;;;;44.03;26.10;;;;;;;3.01;87.71;100600.30;1854565;77;21115;-84
2021/01/07 08:42:40;;;;;;;50.25;28.70;;;;;;;3.02;87.58;100595.98;1854353;77;21947;-84
2021/01/07 08:45:08;;;;;;;53.10;30.08;;;;;;;3.00;87.53;100603.70;1854244;77;21147;-85
2021/01/07 08:47:35;;;;;;;54.05;29.95;;;;;;;3.00;87.48;100602.81;1854041;77;21138;-84
2021/01/07 08:50:12;;;;;;;51.63;29.72;;;;;;;3.02;87.50;100598.20;1854055;77;21159;-85
2021/01/07 08:52:58;;;;;;;56.28;29.27;;;;;;;2.99;87.27;100597.14;1854124;77;21159;-86
2021/01/07 08:55:49;;;;;;;51.58;27.98;;;;;;;2.98;87.37;100596.64;1853940;77;21943;-85
2021/01/07 08:58:24;;;;;;;54.63;28.85;;;;;;;2.96;87.32;100599.57;1853916;77;21139;-85
2021/01/07 09:00:55;;;;;;;50.12;27.98;;;;;;;2.93;87.18;100597.71;1826067;77;21158;-83
2021/01/07 09:03:24;;;;;;;52.90;30.00;;;;;;;2.91;87.23;100598.05;1854071;77;21126;-83
2021/01/07 09:06:09;;;;;;;54.48;29.18;;;;;;;2.89;87.15;100597.03;1853960;77;21240;-83
2021/01/07 09:08:36;;;;;;;49.63;27.77;;;;;;;2.88;87.14;100600.47;1854121;77;21923;-82
2021/01/07 09:11:06;;;;;;;47.27;27.77;;;;;;;2.80;87.07;100600.06;1854165;77;21122;-82
2021/01/07 09:13:33;;;;;;;45.83;26.62;;;;;;;2.76;87.01;100598.49;1854119;77;21155;-84
2021/01/07 09:16:15;;;;;;;51.77;27.85;;;;;;;2.73;87.07;100597.94;1853973;76;21182;-83
2021/01/07 09:18:42;;;;;;;49.50;27.87;;;;;;;2.73;87.21;100596.64;1853954;77;21513;-84
2021/01/07 09:21:15;;;;;;;48.35;27.50;;;;;;;2.76;87.28;100592.00;1854026;77;22767;-84
2021/01/07 09:23:47;;;;;;;;;;;;;;;2.81;87.38;100594.45;1856704;77;21564;-85
2021/01/07 09:26:11;;;;;;;50.15;26.27;;;;;;;2.82;87.25;100589.34;1853536;77;20267;-84
2021/01/07 09:28:40;;;;;;;48.87;28.25;;;;;;;2.88;87.43;100584.45;1825509;77;21190;-84
2021/01/07 09:31:07;;;;;;;55.43;30.00;;;;;;;2.94;87.38;100585.59;1854084;77;21103;-82
2021/01/07 09:33:34;;;;;;;63.00;34.13;;;;;;;2.98;87.39;100575.42;1853869;76;22952;-81
2021/01/07 09:36:01;;;;;;;57.10;35.52;;;;;;;3.03;87.29;100575.69;1853723;77;21182;-82
2021/01/07 09:38:29;;;;;;;59.73;33.38;;;;;;;3.10;87.39;100576.08;1853968;77;21542;-89
2021/01/07 09:40:56;;;;;;;54.50;32.10;;;;;;;3.13;87.08;100586.16;1853759;77;21299;-86
2021/01/07 09:43:23;;;;;;;51.95;31.75;;;;;;;3.15;87.15;100580.20;1854035;77;21175;-82
2021/01/07 09:45:50;;;;;;;50.48;30.05;;;;;;;3.18;87.01;100579.49;1854024;77;22818;-82
2021/01/07 09:48:17;;;;;;;46.77;29.32;;;;;;;3.17;86.91;100576.39;1853902;77;21103;-82
2021/01/07 09:50:44;;;;;;;45.78;27.93;;;;;;;3.20;87.04;100574.84;1853935;77;21095;-80
2021/01/07 09:53:11;;;;;;;43.33;26.77;;;;;;;3.22;86.96;100580.13;1853900;77;21110;-81
2021/01/07 09:55:39;;;;;;;44.90;27.85;;;;;;;3.23;86.91;100576.31;1853882;77;21537;-81
2021/01/07 09:58:06;;;;;;;43.52;26.68;;;;;;;3.27;86.88;100573.47;1853817;77;22950;-82
2021/01/07 10:00:33;;;;;;;42.55;27.17;;;;;;;3.29;86.80;100568.81;1853936;77;21185;-82
2021/01/07 10:03:00;;;;;;;47.20;26.45;;;;;;;3.36;86.82;100569.13;1853861;77;21716;-83
2021/01/07 10:05:27;;;;;;;46.37;27.15;;;;;;;3.41;86.70;100570.26;1853659;77;21159;-81
2021/01/07 10:07:54;;;;;;;45.10;28.17;;;;;;;3.44;86.60;100570.01;1853797;77;21174;-82
2021/01/07 10:10:21;;;;;;;42.67;26.90;;;;;;;3.54;86.80;100570.05;1853595;77;22855;-82
2021/01/07 10:12:48;;;;;;;42.53;25.68;;;;;;;3.67;86.95;100571.15;1853516;77;21127;-79
2021/01/07 10:15:16;;;;;;;48.42;28.45;;;;;;;3.73;86.63;100573.16;1853589;77;21146;-82
2021/01/07 10:17:43;;;;;;;43.68;26.57;;;;;;;3.75;86.49;100572.83;1853603;77;21636;-82
2021/01/07 10:20:13;;;;;;;43.30;25.70;;;;;;;3.76;86.14;100570.73;1825721;77;21530;-85
2021/01/07 10:22:40;;;;;;;44.42;25.57;;;;;;;3.76;86.27;100568.54;1853875;77;21863;-83
2021/01/07 10:25:08;;;;;;;41.70;25.85;;;;;;;3.73;86.04;100568.38;1853908;77;21174;-85
2021/01/07 10:27:36;;;;;;;48.08;27.27;;;;;;;3.78;86.28;100571.69;1825708;77;21177;-84
2021/01/07 10:30:03;;;;;;;47.33;27.27;;;;;;;3.85;86.23;100574.20;1853812;77;21159;-82
2021/01/07 10:32:31;;;;;;;51.70;27.22;;;;;;;3.88;86.30;100566.10;1853812;77;21178;-82
2021/01/07 10:34:58;;;;;;;50.65;27.40;;;;;;;3.89;86.10;100569.20;1853687;75;21868;-85
2021/01/07 10:37:25;;;;;;;45.25;26.57;;;;;;;3.91;86.04;100567.10;1825841;77;21112;-83
2021/01/07 10:39:53;;;;;;;41.92;25.52;;;;;;;3.87;85.78;100573.45;1853914;77;21597;-84
2021/01/07 10:42:34;;;;;;;;;;;;;;;;;;;;;
2021/01/07 10:45:01;;;;;;;39.83;23.87;;;;;;;3.89;85.83;100561.39;1889915;75;22726;-85
2021/01/07 10:47:28;;;;;;;41.10;24.98;;;;;;;3.84;85.63;100564.17;1863052;77;21167;-86
2021/01/07 10:49:55;;;;;;;36.17;23.55;;;;;;;3.79;85.39;100559.56;1863500;77;21881;-85
2021/01/07 10:52:31;;;;;;;42.80;24.85;;;;;;;3.68;85.13;100562.95;1863316;77;21630;-86
2021/01/07 10:55:19;;;;;;;40.70;24.43;;;;;;;3.64;85.26;100556.70;1863312;77;21542;-85
2021/01/07 10:58:07;;;;;;;48.87;28.15;;;;;;;3.68;85.51;100558.63;1863368;77;21171;-85
2021/01/07 11:01:02;;;;;;;45.03;25.82;;;;;;;3.75;85.67;100555.91;1863873;77;21610;-87
2021/01/07 11:03:47;;;;;;;46.83;26.87;;;;;;;3.84;85.78;100557.66;1831797;77;22878;-86
2021/01/07 11:06:17;;;;;;;48.40;27.32;;;;;;;3.93;85.79;100553.32;1862757;77;21163;-85
2021/01/07 11:08:57;;;;;;;42.93;26.97;;;;;;;4.02;85.80;100550.28;1863344;77;21176;-86
2021/01/07 11:11:26;;;;;;;43.38;28.50;;;;;;;4.08;85.79;100553.17;1863076;77;21199;-86
2021/01/07 11:14:10;;;;;;;47.40;30.15;;;;;;;4.12;85.65;100548.58;1863436;77;21755;-85
2021/01/07 11:16:43;;;;;;;57.88;36.45;;;;;;;4.11;85.32;100549.80;1863001;77;21924;-86
2021/01/07 11:19:10;;;;;;;95.30;56.95;;;;;;;4.12;85.35;100543.80;1862995;77;21174;-86
2021/01/07 11:21:45;;;;;;;83.85;54.03;;;;;;;4.07;85.04;100543.17;1862983;77;21754;-86
2021/01/07 11:24:12;;;;;;;59.23;39.13;;;;;;;4.07;85.14;100547.46;1863000;77;21566;-86
2021/01/07 11:26:39;;;;;;;62.78;40.08;;;;;;;4.08;85.24;100542.33;1863062;77;21100;-86
2021/01/07 11:29:07;;;;;;;101.27;58.15;;;;;;;4.11;85.21;100544.59;1863019;77;22089;-86